La Crosse Municipal Airport
KLSE : now visible

Aeroporto :











RITROVATECI SU...

 
LOGIN :

Iscrizione | Disclaimer

   EN    FR    IT 

 









Sommario :    VFR   VFR Marginale   IFR   IFR Intensivo   IFR Molto Intensivo
Visibilità : 
Base nubi : 
>= 8 km
>= 3000ft
5 / 8 km
1000 / 3000 ft
1500m / 5 km
500 / 1000 ft
800 / 1500m
200 / 500 ft
< 800m
< 200 ft
Simboli :   Temporali  Nebbia  Neve Forte  Precipitazioni Forti  Vento > 20 kt







- Altitudine del aeroporto : 655 ft
- Codice IATA : LSE


KLSE - La Crosse Municipal

ULTIMO METAR :
  • 180653Z AUTO 16007KT 10SM CLR 22/18 A3001 RMK AO2 SLP152 T02220183

METARs OBSOLETI :
  • 180553Z AUTO 17010KT 10SM CLR 22/18 A3001 RMK AO2 SLP151 T02220183 10256 20222 403000200 58005
  • 180453Z AUTO 16009KT 10SM CLR 23/18 A3002 RMK AO2 SLP154 T02280183

TAF KLSE
Valido dal 18 a 06 ore il 19 a 06 ore UTC


180520Z 1806/1906 15008KT P6SM SCT250
FM180800 17009KT P6SM BKN200
FM181600 18010G19KT P6SM BKN200
FM182000 18010KT P6SM BKN250
FM190000 17007KT P6SM VCSH BKN080
Nessun NOTAM noto per questo aeroporto.



MetMap, La meteo Aeronautica in un colpo d'occhio ! - Copyright ORBIFLY Dicembre 2007 - Disclaimer

ORBIFLY MET'MAP TEAM :

Programmazione e sviluppo : Alexandra Zaïnal
Concezione e sviluppo : Baudouin d'Aumeries
Co-Programmazione e sviluppo : Marc-Olivier Méhu
Supporto tecnico e logistico : Manuel Goepfert
Aiuto per la traduzione : Arnaldo La Scala

Contatto : metmap@orbifly.com




FONTI E CREDITI :

   NOAA       Earth
Advisory